Aeropuerto "General Tomas de Heres". Ciudad Bolivar


Codes: SVCB/CBL
Name: Aeropuerto "General Tomas de Heres". Ciudad Bolivar
City:
Country: Venezuela
Elevation: 197 ft.

Photos at Aeropuerto "General Tomas de Heres". Ciudad Bolivar


   Photos courtesy of SpottingLog. You can add your own sightings and photos by signing up for a free trial today.



No photos found.

Weather at Aeropuerto "General Tomas de Heres". Ciudad Bolivar


Time (UTC)DescriptionTempratureWindCloud coverageVisibilityPressureHumidity
16-Jun-2024 00:00Overcast Clouds30°C7 mph, E90%10000m1011hPa55%
16-Jun-2024 03:00Light Rain29°C9 mph, E93%10000m1012hPa61%
16-Jun-2024 06:00Light Rain27°C7 mph, NE97%10000m1012hPa72%
16-Jun-2024 09:00Overcast Clouds25°C7 mph, NE100%10000m1012hPa84%
16-Jun-2024 12:00Overcast Clouds26°C7 mph, NE100%10000m1014hPa78%
16-Jun-2024 15:00Broken Clouds31°C9 mph, E72%10000m1013hPa55%
16-Jun-2024 18:00Broken Clouds34°C9 mph, SE59%10000m1010hPa45%
16-Jun-2024 21:00Broken Clouds33°C7 mph, SE84%10000m1010hPa48%
17-Jun-2024 00:00Overcast Clouds31°C7 mph, NE86%10000m1011hPa56%
17-Jun-2024 03:00Overcast Clouds28°C11 mph, NE95%10000m1012hPa68%
17-Jun-2024 06:00Light Rain26°C7 mph, NE99%10000m1011hPa77%
17-Jun-2024 09:00Broken Clouds25°C4 mph, NE65%10000m1011hPa81%
17-Jun-2024 12:00Broken Clouds27°C7 mph, NE59%10000m1013hPa73%
17-Jun-2024 15:00Scattered Clouds32°C7 mph, E29%10000m1012hPa51%
17-Jun-2024 18:00Broken Clouds34°C4 mph, E55%10000m1009hPa43%
17-Jun-2024 21:00Light Rain32°C4 mph, E100%10000m1007hPa51%
18-Jun-2024 00:00Light Rain28°C4 mph, NE100%10000m1010hPa69%
18-Jun-2024 03:00Light Rain26°C11 mph, E44%10000m1011hPa82%
18-Jun-2024 06:00Light Rain25°C7 mph, NE64%10000m1010hPa85%
18-Jun-2024 09:00Light Rain24°C7 mph, NE100%10000m1011hPa88%
18-Jun-2024 12:00Light Rain26°C9 mph, E100%10000m1012hPa82%
18-Jun-2024 15:00Light Rain29°C9 mph, SE100%10000m1012hPa69%
18-Jun-2024 18:00Light Rain29°C4 mph, SE100%10000m1010hPa67%
18-Jun-2024 21:00Light Rain27°C4 mph, S100%10000m1008hPa78%
19-Jun-2024 00:00Light Rain26°C4 mph, S99%10000m1010hPa84%
19-Jun-2024 03:00Light Rain26°C2 mph, E85%10000m1011hPa83%
19-Jun-2024 06:00Overcast Clouds24°C4 mph, E86%10000m1010hPa89%
19-Jun-2024 09:00Few Clouds24°C4 mph, NE22%10000m1010hPa93%
19-Jun-2024 12:00Few Clouds26°C7 mph, E19%10000m1012hPa80%
19-Jun-2024 15:00Few Clouds31°C9 mph, E17%10000m1012hPa56%
19-Jun-2024 18:00Scattered Clouds33°C9 mph, E30%10000m1008hPa44%
19-Jun-2024 21:00Overcast Clouds30°C9 mph, NE100%10000m1007hPa58%
20-Jun-2024 00:00Overcast Clouds29°C9 mph, NE100%10000m1009hPa64%
20-Jun-2024 03:00Broken Clouds26°C9 mph, NE80%10000m1011hPa76%
20-Jun-2024 06:00Broken Clouds25°C9 mph, NE84%10000m1010hPa84%
20-Jun-2024 09:00Broken Clouds24°C7 mph, NE57%10000m1010hPa89%
20-Jun-2024 12:00Scattered Clouds26°C9 mph, E33%10000m1012hPa75%
20-Jun-2024 15:00Broken Clouds31°C9 mph, E59%10000m1012hPa52%
20-Jun-2024 18:00Broken Clouds34°C9 mph, E81%10000m1009hPa40%
20-Jun-2024 21:00Overcast Clouds31°C4 mph, NE100%10000m1008hPa55%